sensor_id;sensor_type;location;lat;lon;timestamp;P1;durP1;ratioP1;P2;durP2;ratioP2
3549;SDS011;45572;48.804;8.330;2022-10-03T00:00:11;10.00;;;4.20;;
3549;SDS011;45572;48.804;8.330;2022-10-03T00:02:48;12.98;;;3.60;;
3549;SDS011;45572;48.804;8.330;2022-10-03T00:05:38;8.52;;;3.95;;
3549;SDS011;45572;48.804;8.330;2022-10-03T00:08:19;8.70;;;4.57;;
3549;SDS011;45572;48.804;8.330;2022-10-03T00:11:01;6.85;;;3.92;;
3549;SDS011;45572;48.804;8.330;2022-10-03T00:13:37;9.20;;;4.60;;
3549;SDS011;45572;48.804;8.330;2022-10-03T00:16:12;5.10;;;3.30;;
3549;SDS011;45572;48.804;8.330;2022-10-03T00:18:48;8.30;;;4.70;;
3549;SDS011;45572;48.804;8.330;2022-10-03T00:21:34;17.50;;;5.03;;
3549;SDS011;45572;48.804;8.330;2022-10-03T00:24:12;10.10;;;4.20;;
3549;SDS011;45572;48.804;8.330;2022-10-03T00:26:50;6.25;;;3.80;;
3549;SDS011;45572;48.804;8.330;2022-10-03T00:29:25;6.32;;;4.38;;
3549;SDS011;45572;48.804;8.330;2022-10-03T00:32:05;7.22;;;4.45;;
3549;SDS011;45572;48.804;8.330;2022-10-03T00:34:45;8.00;;;4.47;;
3549;SDS011;45572;48.804;8.330;2022-10-03T00:37:25;9.25;;;3.88;;
3549;SDS011;45572;48.804;8.330;2022-10-03T00:40:09;7.28;;;3.92;;
3549;SDS011;45572;48.804;8.330;2022-10-03T00:43:02;7.05;;;4.55;;
3549;SDS011;45572;48.804;8.330;2022-10-03T00:45:52;8.95;;;4.80;;
3549;SDS011;45572;48.804;8.330;2022-10-03T00:48:45;13.35;;;4.95;;
3549;SDS011;45572;48.804;8.330;2022-10-03T00:51:30;6.50;;;3.15;;
3549;SDS011;45572;48.804;8.330;2022-10-03T00:54:21;6.20;;;3.85;;
3549;SDS011;45572;48.804;8.330;2022-10-03T00:57:05;6.90;;;3.28;;
3549;SDS011;45572;48.804;8.330;2022-10-03T00:59:53;6.13;;;3.83;;
3549;SDS011;45572;48.804;8.330;2022-10-03T01:02:33;5.20;;;3.15;;
3549;SDS011;45572;48.804;8.330;2022-10-03T01:05:15;7.65;;;3.40;;
3549;SDS011;45572;48.804;8.330;2022-10-03T01:08:00;7.53;;;3.83;;
3549;SDS011;45572;48.804;8.330;2022-10-03T01:10:40;9.80;;;4.50;;
3549;SDS011;45572;48.804;8.330;2022-10-03T01:13:18;5.90;;;3.33;;
3549;SDS011;45572;48.804;8.330;2022-10-03T01:16:02;5.60;;;3.45;;
3549;SDS011;45572;48.804;8.330;2022-10-03T01:18:39;6.68;;;3.22;;
3549;SDS011;45572;48.804;8.330;2022-10-03T01:21:18;4.72;;;3.33;;
3549;SDS011;45572;48.804;8.330;2022-10-03T01:26:50;5.93;;;3.80;;
3549;SDS011;45572;48.804;8.330;2022-10-03T01:29:25;6.65;;;3.75;;
3549;SDS011;45572;48.804;8.330;2022-10-03T01:32:16;4.50;;;2.78;;
3549;SDS011;45572;48.804;8.330;2022-10-03T01:34:51;5.47;;;3.75;;
3549;SDS011;45572;48.804;8.330;2022-10-03T01:37:24;5.65;;;3.10;;
3549;SDS011;45572;48.804;8.330;2022-10-03T01:39:58;7.50;;;3.88;;
3549;SDS011;45572;48.804;8.330;2022-10-03T01:42:36;5.10;;;3.00;;
3549;SDS011;45572;48.804;8.330;2022-10-03T01:45:13;7.22;;;3.25;;
3549;SDS011;45572;48.804;8.330;2022-10-03T01:47:54;8.50;;;3.05;;
3549;SDS011;45572;48.804;8.330;2022-10-03T01:50:28;5.57;;;3.60;;
3549;SDS011;45572;48.804;8.330;2022-10-03T01:53:02;9.18;;;3.58;;
3549;SDS011;45572;48.804;8.330;2022-10-03T01:55:43;4.82;;;2.70;;
3549;SDS011;45572;48.804;8.330;2022-10-03T01:58:21;5.03;;;3.15;;
3549;SDS011;45572;48.804;8.330;2022-10-03T02:00:57;3.53;;;2.65;;
3549;SDS011;45572;48.804;8.330;2022-10-03T02:03:34;5.93;;;3.03;;
3549;SDS011;45572;48.804;8.330;2022-10-03T02:06:08;5.30;;;2.90;;
3549;SDS011;45572;48.804;8.330;2022-10-03T02:08:46;2.75;;;2.20;;
3549;SDS011;45572;48.804;8.330;2022-10-03T02:11:22;3.05;;;2.10;;
3549;SDS011;45572;48.804;8.330;2022-10-03T02:13:57;2.97;;;2.10;;
3549;SDS011;45572;48.804;8.330;2022-10-03T02:16:37;11.68;;;2.50;;
3549;SDS011;45572;48.804;8.330;2022-10-03T02:19:11;2.95;;;1.95;;
3549;SDS011;45572;48.804;8.330;2022-10-03T02:21:50;3.45;;;2.17;;
3549;SDS011;45572;48.804;8.330;2022-10-03T02:24:23;3.40;;;1.90;;
3549;SDS011;45572;48.804;8.330;2022-10-03T02:27:07;5.82;;;2.20;;
3549;SDS011;45572;48.804;8.330;2022-10-03T02:30:02;3.45;;;2.45;;
3549;SDS011;45572;48.804;8.330;2022-10-03T02:32:44;5.00;;;2.17;;
3549;SDS011;45572;48.804;8.330;2022-10-03T02:35:36;6.25;;;2.67;;
3549;SDS011;45572;48.804;8.330;2022-10-03T02:38:22;5.65;;;2.05;;
3549;SDS011;45572;48.804;8.330;2022-10-03T02:41:07;5.30;;;2.13;;
3549;SDS011;45572;48.804;8.330;2022-10-03T02:49:42;11.55;;;2.50;;
3549;SDS011;45572;48.804;8.330;2022-10-03T02:52:32;3.35;;;2.50;;
3549;SDS011;45572;48.804;8.330;2022-10-03T02:55:30;2.83;;;1.92;;
3549;SDS011;45572;48.804;8.330;2022-10-03T02:58:20;4.20;;;2.97;;
3549;SDS011;45572;48.804;8.330;2022-10-03T03:01:19;6.13;;;2.70;;
3549;SDS011;45572;48.804;8.330;2022-10-03T03:07:12;4.97;;;2.90;;
3549;SDS011;45572;48.804;8.330;2022-10-03T03:10:05;4.22;;;2.90;;
3549;SDS011;45572;48.804;8.330;2022-10-03T03:12:54;9.70;;;2.60;;
3549;SDS011;45572;48.804;8.330;2022-10-03T03:18:38;3.97;;;2.97;;
3549;SDS011;45572;48.804;8.330;2022-10-03T03:21:17;5.32;;;3.28;;
3549;SDS011;45572;48.804;8.330;2022-10-03T03:23:58;5.82;;;3.10;;
3549;SDS011;45572;48.804;8.330;2022-10-03T03:26:43;5.55;;;3.25;;
3549;SDS011;45572;48.804;8.330;2022-10-03T03:29:25;5.15;;;2.55;;
3549;SDS011;45572;48.804;8.330;2022-10-03T03:32:01;4.57;;;2.75;;
3549;SDS011;45572;48.804;8.330;2022-10-03T03:34:41;3.83;;;2.63;;
3549;SDS011;45572;48.804;8.330;2022-10-03T03:37:19;4.10;;;2.25;;
3549;SDS011;45572;48.804;8.330;2022-10-03T03:40:01;4.93;;;2.67;;
3549;SDS011;45572;48.804;8.330;2022-10-03T03:42:49;6.55;;;2.40;;
3549;SDS011;45572;48.804;8.330;2022-10-03T03:45:34;8.30;;;2.85;;
3549;SDS011;45572;48.804;8.330;2022-10-03T03:51:08;9.95;;;3.25;;
3549;SDS011;45572;48.804;8.330;2022-10-03T03:53:52;3.70;;;2.47;;
3549;SDS011;45572;48.804;8.330;2022-10-03T03:56:38;3.25;;;2.20;;
3549;SDS011;45572;48.804;8.330;2022-10-03T03:59:31;2.47;;;1.80;;
3549;SDS011;45572;48.804;8.330;2022-10-03T04:02:13;2.90;;;1.90;;
3549;SDS011;45572;48.804;8.330;2022-10-03T04:04:55;2.75;;;2.10;;
3549;SDS011;45572;48.804;8.330;2022-10-03T04:07:37;3.47;;;2.00;;
3549;SDS011;45572;48.804;8.330;2022-10-03T04:10:22;3.90;;;2.40;;
3549;SDS011;45572;48.804;8.330;2022-10-03T04:13:03;3.72;;;2.30;;
3549;SDS011;45572;48.804;8.330;2022-10-03T04:15:49;4.32;;;2.80;;
3549;SDS011;45572;48.804;8.330;2022-10-03T04:18:31;7.90;;;3.15;;
3549;SDS011;45572;48.804;8.330;2022-10-03T04:21:33;4.72;;;2.08;;
3549;SDS011;45572;48.804;8.330;2022-10-03T04:24:13;4.85;;;2.85;;
3549;SDS011;45572;48.804;8.330;2022-10-03T04:26:58;5.35;;;2.80;;
3549;SDS011;45572;48.804;8.330;2022-10-03T04:29:45;5.13;;;3.03;;
3549;SDS011;45572;48.804;8.330;2022-10-03T04:32:28;6.38;;;2.72;;
3549;SDS011;45572;48.804;8.330;2022-10-03T04:35:20;8.57;;;3.60;;
3549;SDS011;45572;48.804;8.330;2022-10-03T04:38:03;6.57;;;4.00;;
3549;SDS011;45572;48.804;8.330;2022-10-03T04:40:41;12.82;;;3.10;;
3549;SDS011;45572;48.804;8.330;2022-10-03T04:43:15;8.45;;;3.25;;
3549;SDS011;45572;48.804;8.330;2022-10-03T04:45:56;7.55;;;4.45;;
3549;SDS011;45572;48.804;8.330;2022-10-03T04:48:37;9.50;;;3.20;;
3549;SDS011;45572;48.804;8.330;2022-10-03T04:51:14;6.63;;;2.95;;
3549;SDS011;45572;48.804;8.330;2022-10-03T04:53:51;7.43;;;3.25;;
3549;SDS011;45572;48.804;8.330;2022-10-03T04:56:38;8.18;;;4.90;;
3549;SDS011;45572;48.804;8.330;2022-10-03T04:59:18;8.55;;;4.60;;
3549;SDS011;45572;48.804;8.330;2022-10-03T05:01:59;11.38;;;4.57;;
3549;SDS011;45572;48.804;8.330;2022-10-03T05:04:37;16.17;;;4.72;;
3549;SDS011;45572;48.804;8.330;2022-10-03T05:07:12;15.23;;;4.40;;
3549;SDS011;45572;48.804;8.330;2022-10-03T05:09:48;6.68;;;3.50;;
3549;SDS011;45572;48.804;8.330;2022-10-03T05:12:20;7.65;;;4.03;;
3549;SDS011;45572;48.804;8.330;2022-10-03T05:15:11;7.75;;;3.70;;
3549;SDS011;45572;48.804;8.330;2022-10-03T05:17:47;9.35;;;4.60;;
3549;SDS011;45572;48.804;8.330;2022-10-03T05:20:38;10.50;;;3.88;;
3549;SDS011;45572;48.804;8.330;2022-10-03T05:23:17;12.20;;;4.60;;
3549;SDS011;45572;48.804;8.330;2022-10-03T05:25:57;10.40;;;4.72;;
3549;SDS011;45572;48.804;8.330;2022-10-03T05:28:53;10.80;;;4.20;;
3549;SDS011;45572;48.804;8.330;2022-10-03T05:31:30;5.85;;;3.88;;
3549;SDS011;45572;48.804;8.330;2022-10-03T05:34:12;9.65;;;5.00;;
3549;SDS011;45572;48.804;8.330;2022-10-03T05:36:54;9.05;;;4.97;;
3549;SDS011;45572;48.804;8.330;2022-10-03T05:39:33;10.35;;;5.00;;
3549;SDS011;45572;48.804;8.330;2022-10-03T05:42:22;8.23;;;4.95;;
3549;SDS011;45572;48.804;8.330;2022-10-03T05:45:13;6.32;;;4.30;;
3549;SDS011;45572;48.804;8.330;2022-10-03T05:47:51;13.82;;;5.93;;
3549;SDS011;45572;48.804;8.330;2022-10-03T05:50:27;6.38;;;4.93;;
3549;SDS011;45572;48.804;8.330;2022-10-03T05:53:20;8.32;;;4.68;;
3549;SDS011;45572;48.804;8.330;2022-10-03T05:56:10;7.82;;;5.65;;
3549;SDS011;45572;48.804;8.330;2022-10-03T05:59:06;5.55;;;4.05;;
3549;SDS011;45572;48.804;8.330;2022-10-03T06:04:55;12.75;;;4.88;;
3549;SDS011;45572;48.804;8.330;2022-10-03T06:07:39;10.73;;;5.65;;
3549;SDS011;45572;48.804;8.330;2022-10-03T06:10:24;8.98;;;6.10;;
3549;SDS011;45572;48.804;8.330;2022-10-03T06:13:08;13.50;;;7.40;;
3549;SDS011;45572;48.804;8.330;2022-10-03T06:15:44;9.48;;;7.03;;
3549;SDS011;45572;48.804;8.330;2022-10-03T06:18:23;12.52;;;7.43;;
3549;SDS011;45572;48.804;8.330;2022-10-03T06:21:13;13.68;;;7.35;;
3549;SDS011;45572;48.804;8.330;2022-10-03T06:27:06;9.98;;;7.07;;
3549;SDS011;45572;48.804;8.330;2022-10-03T06:29:58;6.93;;;6.00;;
3549;SDS011;45572;48.804;8.330;2022-10-03T06:35:41;8.75;;;5.90;;
3549;SDS011;45572;48.804;8.330;2022-10-03T06:38:33;9.30;;;5.80;;
3549;SDS011;45572;48.804;8.330;2022-10-03T06:41:25;10.23;;;6.28;;
3549;SDS011;45572;48.804;8.330;2022-10-03T06:44:19;9.38;;;6.22;;
3549;SDS011;45572;48.804;8.330;2022-10-03T06:47:01;7.43;;;5.47;;
3549;SDS011;45572;48.804;8.330;2022-10-03T06:49:53;7.50;;;5.55;;
3549;SDS011;45572;48.804;8.330;2022-10-03T06:52:44;5.40;;;4.15;;
3549;SDS011;45572;48.804;8.330;2022-10-03T06:55:31;8.40;;;4.43;;
3549;SDS011;45572;48.804;8.330;2022-10-03T07:04:15;6.65;;;4.40;;
3549;SDS011;45572;48.804;8.330;2022-10-03T07:07:06;7.95;;;4.32;;
3549;SDS011;45572;48.804;8.330;2022-10-03T07:12:45;4.15;;;3.30;;
3549;SDS011;45572;48.804;8.330;2022-10-03T07:15:37;5.85;;;3.75;;
3549;SDS011;45572;48.804;8.330;2022-10-03T07:18:43;7.47;;;4.47;;
3549;SDS011;45572;48.804;8.330;2022-10-03T07:21:38;8.15;;;4.15;;
3549;SDS011;45572;48.804;8.330;2022-10-03T07:27:24;9.55;;;4.35;;
3549;SDS011;45572;48.804;8.330;2022-10-03T07:30:07;7.97;;;4.05;;
3549;SDS011;45572;48.804;8.330;2022-10-03T07:35:40;5.82;;;4.10;;
3549;SDS011;45572;48.804;8.330;2022-10-03T07:38:42;6.53;;;4.07;;
3549;SDS011;45572;48.804;8.330;2022-10-03T07:41:30;12.43;;;5.38;;
3549;SDS011;45572;48.804;8.330;2022-10-03T07:44:17;5.85;;;4.57;;
3549;SDS011;45572;48.804;8.330;2022-10-03T07:47:19;8.07;;;4.70;;
3549;SDS011;45572;48.804;8.330;2022-10-03T07:50:15;9.15;;;4.25;;
3549;SDS011;45572;48.804;8.330;2022-10-03T07:53:06;4.43;;;3.77;;
3549;SDS011;45572;48.804;8.330;2022-10-03T07:55:50;5.23;;;4.50;;
3549;SDS011;45572;48.804;8.330;2022-10-03T07:58:38;6.80;;;4.60;;
3549;SDS011;45572;48.804;8.330;2022-10-03T08:01:30;10.80;;;3.50;;
3549;SDS011;45572;48.804;8.330;2022-10-03T08:07:06;4.90;;;3.50;;
3549;SDS011;45572;48.804;8.330;2022-10-03T08:09:53;5.97;;;3.57;;
3549;SDS011;45572;48.804;8.330;2022-10-03T08:12:35;7.03;;;3.60;;
3549;SDS011;45572;48.804;8.330;2022-10-03T08:15:21;7.90;;;3.70;;
3549;SDS011;45572;48.804;8.330;2022-10-03T08:18:00;9.53;;;3.90;;
3549;SDS011;45572;48.804;8.330;2022-10-03T08:20:42;11.23;;;3.30;;
3549;SDS011;45572;48.804;8.330;2022-10-03T08:23:21;7.37;;;3.50;;
3549;SDS011;45572;48.804;8.330;2022-10-03T08:26:10;6.57;;;3.63;;
3549;SDS011;45572;48.804;8.330;2022-10-03T08:28:47;20.30;;;4.83;;
3549;SDS011;45572;48.804;8.330;2022-10-03T08:31:37;7.30;;;4.53;;
3549;SDS011;45572;48.804;8.330;2022-10-03T08:34:25;8.03;;;4.50;;
3549;SDS011;45572;48.804;8.330;2022-10-03T08:37:09;9.77;;;4.43;;
3549;SDS011;45572;48.804;8.330;2022-10-03T08:40:03;12.30;;;4.33;;
3549;SDS011;45572;48.804;8.330;2022-10-03T08:43:12;18.73;;;4.67;;
3549;SDS011;45572;48.804;8.330;2022-10-03T08:46:01;12.33;;;4.80;;
3549;SDS011;45572;48.804;8.330;2022-10-03T08:48:41;12.20;;;4.97;;
3549;SDS011;45572;48.804;8.330;2022-10-03T08:54:25;9.60;;;3.90;;
3549;SDS011;45572;48.804;8.330;2022-10-03T08:57:11;9.23;;;4.40;;
3549;SDS011;45572;48.804;8.330;2022-10-03T09:02:35;7.70;;;4.43;;
3549;SDS011;45572;48.804;8.330;2022-10-03T09:08:41;8.47;;;3.20;;
3549;SDS011;45572;48.804;8.330;2022-10-03T09:17:12;6.60;;;2.93;;
3549;SDS011;45572;48.804;8.330;2022-10-03T09:22:56;7.23;;;3.23;;
3549;SDS011;45572;48.804;8.330;2022-10-03T09:25:38;12.00;;;4.13;;
3549;SDS011;45572;48.804;8.330;2022-10-03T09:28:28;8.23;;;4.67;;
3549;SDS011;45572;48.804;8.330;2022-10-03T09:31:18;6.37;;;3.50;;
3549;SDS011;45572;48.804;8.330;2022-10-03T09:37:02;6.23;;;2.83;;
3549;SDS011;45572;48.804;8.330;2022-10-03T09:39:56;4.77;;;3.03;;
3549;SDS011;45572;48.804;8.330;2022-10-03T09:42:51;4.23;;;3.83;;
3549;SDS011;45572;48.804;8.330;2022-10-03T09:45:42;10.13;;;2.93;;
3549;SDS011;45572;48.804;8.330;2022-10-03T09:48:35;7.10;;;3.10;;
3549;SDS011;45572;48.804;8.330;2022-10-03T09:51:17;6.07;;;2.87;;
3549;SDS011;45572;48.804;8.330;2022-10-03T09:54:02;8.07;;;2.40;;
3549;SDS011;45572;48.804;8.330;2022-10-03T09:56:54;5.07;;;2.47;;
3549;SDS011;45572;48.804;8.330;2022-10-03T09:59:34;6.00;;;2.70;;
3549;SDS011;45572;48.804;8.330;2022-10-03T10:02:27;4.67;;;3.47;;
3549;SDS011;45572;48.804;8.330;2022-10-03T10:05:16;11.63;;;4.90;;
3549;SDS011;45572;48.804;8.330;2022-10-03T10:08:05;5.97;;;3.40;;
3549;SDS011;45572;48.804;8.330;2022-10-03T10:10:50;8.50;;;3.07;;
3549;SDS011;45572;48.804;8.330;2022-10-03T10:16:40;6.27;;;3.40;;
3549;SDS011;45572;48.804;8.330;2022-10-03T10:19:22;3.67;;;3.27;;
3549;SDS011;45572;48.804;8.330;2022-10-03T10:22:16;5.23;;;3.90;;
3549;SDS011;45572;48.804;8.330;2022-10-03T10:25:12;12.10;;;4.70;;
3549;SDS011;45572;48.804;8.330;2022-10-03T10:27:57;9.93;;;4.40;;
3549;SDS011;45572;48.804;8.330;2022-10-03T10:30:45;7.23;;;4.47;;
3549;SDS011;45572;48.804;8.330;2022-10-03T10:33:42;7.07;;;4.40;;
3549;SDS011;45572;48.804;8.330;2022-10-03T10:39:40;9.43;;;5.17;;
3549;SDS011;45572;48.804;8.330;2022-10-03T10:42:35;6.60;;;4.10;;
3549;SDS011;45572;48.804;8.330;2022-10-03T10:48:30;6.80;;;4.50;;
3549;SDS011;45572;48.804;8.330;2022-10-03T10:54:40;9.23;;;4.73;;
3549;SDS011;45572;48.804;8.330;2022-10-03T10:57:39;11.50;;;4.73;;
3549;SDS011;45572;48.804;8.330;2022-10-03T11:00:32;7.93;;;4.73;;
3549;SDS011;45572;48.804;8.330;2022-10-03T11:06:36;7.30;;;3.60;;
3549;SDS011;45572;48.804;8.330;2022-10-03T11:09:24;8.27;;;4.67;;
3549;SDS011;45572;48.804;8.330;2022-10-03T11:15:21;5.50;;;3.73;;
3549;SDS011;45572;48.804;8.330;2022-10-03T11:18:21;9.50;;;4.10;;
3549;SDS011;45572;48.804;8.330;2022-10-03T11:21:16;10.03;;;4.60;;
3549;SDS011;45572;48.804;8.330;2022-10-03T11:24:16;7.50;;;5.17;;
3549;SDS011;45572;48.804;8.330;2022-10-03T11:38:38;11.67;;;4.33;;
3549;SDS011;45572;48.804;8.330;2022-10-03T11:41:17;7.07;;;4.70;;
3549;SDS011;45572;48.804;8.330;2022-10-03T11:44:00;9.33;;;5.07;;
3549;SDS011;45572;48.804;8.330;2022-10-03T11:46:43;12.53;;;5.40;;
3549;SDS011;45572;48.804;8.330;2022-10-03T11:49:25;9.30;;;5.03;;
3549;SDS011;45572;48.804;8.330;2022-10-03T11:52:07;9.23;;;6.83;;
3549;SDS011;45572;48.804;8.330;2022-10-03T11:54:48;8.90;;;5.40;;
3549;SDS011;45572;48.804;8.330;2022-10-03T11:57:26;10.97;;;6.47;;
3549;SDS011;45572;48.804;8.330;2022-10-03T11:59:57;16.30;;;6.57;;
3549;SDS011;45572;48.804;8.330;2022-10-03T12:02:44;8.40;;;6.10;;
3549;SDS011;45572;48.804;8.330;2022-10-03T12:05:34;12.30;;;6.47;;
3549;SDS011;45572;48.804;8.330;2022-10-03T12:08:18;8.10;;;5.97;;
3549;SDS011;45572;48.804;8.330;2022-10-03T12:11:06;12.27;;;5.70;;
3549;SDS011;45572;48.804;8.330;2022-10-03T12:13:48;11.27;;;5.43;;
3549;SDS011;45572;48.804;8.330;2022-10-03T12:16:26;11.20;;;5.73;;
3549;SDS011;45572;48.804;8.330;2022-10-03T12:19:00;10.20;;;5.37;;
3549;SDS011;45572;48.804;8.330;2022-10-03T12:21:35;9.37;;;5.90;;
3549;SDS011;45572;48.804;8.330;2022-10-03T12:24:17;10.70;;;5.93;;
3549;SDS011;45572;48.804;8.330;2022-10-03T12:26:52;11.37;;;6.60;;
3549;SDS011;45572;48.804;8.330;2022-10-03T12:29:25;11.90;;;6.83;;
3549;SDS011;45572;48.804;8.330;2022-10-03T12:32:00;11.67;;;5.83;;
3549;SDS011;45572;48.804;8.330;2022-10-03T12:34:40;7.10;;;5.63;;
3549;SDS011;45572;48.804;8.330;2022-10-03T12:37:21;12.20;;;5.00;;
3549;SDS011;45572;48.804;8.330;2022-10-03T12:40:01;9.47;;;5.50;;
3549;SDS011;45572;48.804;8.330;2022-10-03T12:42:33;7.30;;;5.60;;
3549;SDS011;45572;48.804;8.330;2022-10-03T12:45:09;7.13;;;5.03;;
3549;SDS011;45572;48.804;8.330;2022-10-03T12:47:55;14.40;;;5.57;;
3549;SDS011;45572;48.804;8.330;2022-10-03T12:50:33;8.20;;;4.80;;
3549;SDS011;45572;48.804;8.330;2022-10-03T12:53:14;9.90;;;4.87;;
3549;SDS011;45572;48.804;8.330;2022-10-03T12:55:55;7.53;;;4.70;;
3549;SDS011;45572;48.804;8.330;2022-10-03T12:58:35;5.50;;;3.80;;
3549;SDS011;45572;48.804;8.330;2022-10-03T13:01:18;9.43;;;4.20;;
3549;SDS011;45572;48.804;8.330;2022-10-03T13:03:54;12.73;;;5.70;;
3549;SDS011;45572;48.804;8.330;2022-10-03T13:06:31;8.13;;;4.00;;
3549;SDS011;45572;48.804;8.330;2022-10-03T13:09:30;6.50;;;4.83;;
3549;SDS011;45572;48.804;8.330;2022-10-03T13:12:13;11.73;;;5.20;;
3549;SDS011;45572;48.804;8.330;2022-10-03T13:17:52;7.40;;;4.30;;
3549;SDS011;45572;48.804;8.330;2022-10-03T13:20:27;8.37;;;4.77;;
3549;SDS011;45572;48.804;8.330;2022-10-03T13:23:02;6.43;;;4.50;;
3549;SDS011;45572;48.804;8.330;2022-10-03T13:25:37;8.60;;;4.57;;
3549;SDS011;45572;48.804;8.330;2022-10-03T13:28:12;7.53;;;4.33;;
3549;SDS011;45572;48.804;8.330;2022-10-03T13:30:45;9.43;;;4.57;;
3549;SDS011;45572;48.804;8.330;2022-10-03T13:33:20;12.13;;;5.47;;
3549;SDS011;45572;48.804;8.330;2022-10-03T13:35:51;5.90;;;3.67;;
3549;SDS011;45572;48.804;8.330;2022-10-03T13:38:33;8.10;;;4.00;;
3549;SDS011;45572;48.804;8.330;2022-10-03T13:41:14;9.57;;;4.67;;
3549;SDS011;45572;48.804;8.330;2022-10-03T13:43:55;10.03;;;4.03;;
3549;SDS011;45572;48.804;8.330;2022-10-03T13:46:29;7.37;;;3.20;;
3549;SDS011;45572;48.804;8.330;2022-10-03T13:49:04;9.80;;;4.27;;
3549;SDS011;45572;48.804;8.330;2022-10-03T13:51:47;17.00;;;4.17;;
3549;SDS011;45572;48.804;8.330;2022-10-03T13:54:23;8.20;;;3.57;;
3549;SDS011;45572;48.804;8.330;2022-10-03T13:57:14;5.20;;;3.03;;
3549;SDS011;45572;48.804;8.330;2022-10-03T13:59:51;8.93;;;3.10;;
3549;SDS011;45572;48.804;8.330;2022-10-03T14:02:35;7.73;;;2.97;;
3549;SDS011;45572;48.804;8.330;2022-10-03T14:05:17;8.13;;;4.10;;
3549;SDS011;45572;48.804;8.330;2022-10-03T14:07:59;5.63;;;3.20;;
3549;SDS011;45572;48.804;8.330;2022-10-03T14:10:47;7.80;;;3.30;;
3549;SDS011;45572;48.804;8.330;2022-10-03T14:13:27;8.30;;;4.10;;
3549;SDS011;45572;48.804;8.330;2022-10-03T14:16:03;11.63;;;4.67;;
3549;SDS011;45572;48.804;8.330;2022-10-03T14:18:44;8.03;;;3.70;;
3549;SDS011;45572;48.804;8.330;2022-10-03T14:24:09;9.00;;;3.30;;
3549;SDS011;45572;48.804;8.330;2022-10-03T14:26:48;10.83;;;4.17;;
3549;SDS011;45572;48.804;8.330;2022-10-03T14:29:24;8.03;;;3.97;;
3549;SDS011;45572;48.804;8.330;2022-10-03T14:31:59;5.30;;;3.40;;
3549;SDS011;45572;48.804;8.330;2022-10-03T14:34:53;5.77;;;2.70;;
3549;SDS011;45572;48.804;8.330;2022-10-03T14:37:29;8.43;;;3.00;;
3549;SDS011;45572;48.804;8.330;2022-10-03T14:40:11;6.53;;;3.30;;
3549;SDS011;45572;48.804;8.330;2022-10-03T14:42:50;12.33;;;3.50;;
3549;SDS011;45572;48.804;8.330;2022-10-03T14:45:32;6.33;;;2.50;;
3549;SDS011;45572;48.804;8.330;2022-10-03T14:48:07;17.37;;;4.07;;
3549;SDS011;45572;48.804;8.330;2022-10-03T14:50:41;6.73;;;3.00;;
3549;SDS011;45572;48.804;8.330;2022-10-03T14:53:13;9.30;;;3.10;;
3549;SDS011;45572;48.804;8.330;2022-10-03T14:55:50;6.23;;;3.77;;
3549;SDS011;45572;48.804;8.330;2022-10-03T14:58:27;7.20;;;3.00;;
3549;SDS011;45572;48.804;8.330;2022-10-03T15:01:01;6.70;;;3.10;;
3549;SDS011;45572;48.804;8.330;2022-10-03T15:03:36;4.83;;;2.60;;
3549;SDS011;45572;48.804;8.330;2022-10-03T15:06:17;12.03;;;3.37;;
3549;SDS011;45572;48.804;8.330;2022-10-03T15:08:49;5.80;;;3.00;;
3549;SDS011;45572;48.804;8.330;2022-10-03T15:11:21;11.53;;;3.20;;
3549;SDS011;45572;48.804;8.330;2022-10-03T15:13:55;11.00;;;4.60;;
3549;SDS011;45572;48.804;8.330;2022-10-03T15:16:37;6.33;;;2.90;;
3549;SDS011;45572;48.804;8.330;2022-10-03T15:19:12;5.23;;;3.13;;
3549;SDS011;45572;48.804;8.330;2022-10-03T15:21:43;9.03;;;3.40;;
3549;SDS011;45572;48.804;8.330;2022-10-03T15:24:17;3.43;;;2.50;;
3549;SDS011;45572;48.804;8.330;2022-10-03T15:26:54;9.70;;;2.97;;
3549;SDS011;45572;48.804;8.330;2022-10-03T15:29:32;4.57;;;2.90;;
3549;SDS011;45572;48.804;8.330;2022-10-03T15:32:02;4.33;;;2.90;;
3549;SDS011;45572;48.804;8.330;2022-10-03T15:34:37;6.00;;;2.90;;
3549;SDS011;45572;48.804;8.330;2022-10-03T15:37:08;8.60;;;2.67;;
3549;SDS011;45572;48.804;8.330;2022-10-03T15:39:45;7.77;;;3.93;;
3549;SDS011;45572;48.804;8.330;2022-10-03T15:42:19;6.67;;;3.03;;
3549;SDS011;45572;48.804;8.330;2022-10-03T15:44:53;9.53;;;3.60;;
3549;SDS011;45572;48.804;8.330;2022-10-03T15:47:24;13.73;;;2.90;;
3549;SDS011;45572;48.804;8.330;2022-10-03T15:49:53;18.77;;;4.70;;
3549;SDS011;45572;48.804;8.330;2022-10-03T15:52:25;5.57;;;2.57;;
3549;SDS011;45572;48.804;8.330;2022-10-03T15:54:59;8.23;;;3.00;;
3549;SDS011;45572;48.804;8.330;2022-10-03T15:57:39;14.50;;;3.50;;
3549;SDS011;45572;48.804;8.330;2022-10-03T16:00:19;6.83;;;3.07;;
3549;SDS011;45572;48.804;8.330;2022-10-03T16:02:52;16.33;;;3.83;;
3549;SDS011;45572;48.804;8.330;2022-10-03T16:05:28;3.67;;;2.70;;
3549;SDS011;45572;48.804;8.330;2022-10-03T16:08:00;8.90;;;3.87;;
3549;SDS011;45572;48.804;8.330;2022-10-03T16:10:34;10.03;;;4.13;;
3549;SDS011;45572;48.804;8.330;2022-10-03T16:13:16;6.13;;;3.57;;
3549;SDS011;45572;48.804;8.330;2022-10-03T16:15:56;5.40;;;2.97;;
3549;SDS011;45572;48.804;8.330;2022-10-03T16:21:26;13.10;;;3.80;;
3549;SDS011;45572;48.804;8.330;2022-10-03T16:24:03;4.43;;;2.87;;
3549;SDS011;45572;48.804;8.330;2022-10-03T16:26:40;11.23;;;3.70;;
3549;SDS011;45572;48.804;8.330;2022-10-03T16:29:18;4.20;;;2.70;;
3549;SDS011;45572;48.804;8.330;2022-10-03T16:31:53;5.90;;;3.27;;
3549;SDS011;45572;48.804;8.330;2022-10-03T16:34:26;4.17;;;2.60;;
3549;SDS011;45572;48.804;8.330;2022-10-03T16:36:56;7.00;;;3.50;;
3549;SDS011;45572;48.804;8.330;2022-10-03T16:39:25;3.93;;;2.70;;
3549;SDS011;45572;48.804;8.330;2022-10-03T16:41:57;6.27;;;3.17;;
3549;SDS011;45572;48.804;8.330;2022-10-03T16:44:37;4.83;;;2.70;;
3549;SDS011;45572;48.804;8.330;2022-10-03T16:47:10;5.87;;;3.23;;
3549;SDS011;45572;48.804;8.330;2022-10-03T16:49:38;5.90;;;3.50;;
3549;SDS011;45572;48.804;8.330;2022-10-03T16:52:24;11.40;;;4.10;;
3549;SDS011;45572;48.804;8.330;2022-10-03T16:55:00;7.13;;;3.15;;
3549;SDS011;45572;48.804;8.330;2022-10-03T16:57:34;4.00;;;3.45;;
3549;SDS011;45572;48.804;8.330;2022-10-03T17:00:12;6.28;;;3.13;;
3549;SDS011;45572;48.804;8.330;2022-10-03T17:02:45;7.63;;;4.97;;
3549;SDS011;45572;48.804;8.330;2022-10-03T17:05:14;7.38;;;2.78;;
3549;SDS011;45572;48.804;8.330;2022-10-03T17:07:44;10.32;;;4.50;;
3549;SDS011;45572;48.804;8.330;2022-10-03T17:10:19;14.82;;;3.88;;
3549;SDS011;45572;48.804;8.330;2022-10-03T17:12:55;10.65;;;4.40;;
3549;SDS011;45572;48.804;8.330;2022-10-03T17:15:30;5.95;;;3.85;;
3549;SDS011;45572;48.804;8.330;2022-10-03T17:18:05;7.30;;;5.28;;
3549;SDS011;45572;48.804;8.330;2022-10-03T17:20:43;6.95;;;3.80;;
3549;SDS011;45572;48.804;8.330;2022-10-03T17:23:18;10.82;;;4.72;;
3549;SDS011;45572;48.804;8.330;2022-10-03T17:25:56;13.65;;;3.88;;
3549;SDS011;45572;48.804;8.330;2022-10-03T17:28:30;8.73;;;3.33;;
3549;SDS011;45572;48.804;8.330;2022-10-03T17:31:04;8.35;;;3.45;;
3549;SDS011;45572;48.804;8.330;2022-10-03T17:33:44;9.32;;;3.92;;
3549;SDS011;45572;48.804;8.330;2022-10-03T17:36:32;9.57;;;5.13;;
3549;SDS011;45572;48.804;8.330;2022-10-03T17:39:19;12.35;;;5.35;;
3549;SDS011;45572;48.804;8.330;2022-10-03T17:41:58;9.85;;;4.38;;
3549;SDS011;45572;48.804;8.330;2022-10-03T17:44:33;9.43;;;4.65;;
3549;SDS011;45572;48.804;8.330;2022-10-03T17:47:14;7.95;;;4.40;;
3549;SDS011;45572;48.804;8.330;2022-10-03T17:49:51;8.93;;;4.80;;
3549;SDS011;45572;48.804;8.330;2022-10-03T17:52:25;7.53;;;4.45;;
3549;SDS011;45572;48.804;8.330;2022-10-03T17:54:54;6.88;;;3.88;;
3549;SDS011;45572;48.804;8.330;2022-10-03T17:57:25;5.97;;;4.38;;
3549;SDS011;45572;48.804;8.330;2022-10-03T17:59:57;7.70;;;3.65;;
3549;SDS011;45572;48.804;8.330;2022-10-03T18:02:33;12.93;;;4.30;;
3549;SDS011;45572;48.804;8.330;2022-10-03T18:05:08;5.75;;;3.35;;
3549;SDS011;45572;48.804;8.330;2022-10-03T18:07:39;7.15;;;4.72;;
3549;SDS011;45572;48.804;8.330;2022-10-03T18:10:18;6.88;;;4.30;;